Terminal Aerodrome Forecast
Issued by NWS

Home | Current Version | Previous Version | Text Only | Print | Product List | Glossary On
Versions: 1 2 3 4 5 6 7 8 9 10 11 12 13
000
FTUS43 KPAH 281120
TAFCGI
TAF
KCGI 281120Z 2812/2912 00000KT P6SM SKC
     FM281500 24006KT P6SM SCT040
     FM290000 20006KT P6SM SCT120 BKN250
     FM290500 23007KT P6SM VCSH SCT040 BKN120=

USA.gov is the U.S. government's official web portal to all federal, state and local government web resources and services.